sensor_id;sensor_type;location;lat;lon;timestamp;P1;durP1;ratioP1;P2;durP2;ratioP2
9716;SDS011;4897;43.570;27.832;2024-03-02T00:01:35;27.48;;;20.63;;
9716;SDS011;4897;43.570;27.832;2024-03-02T00:04:03;28.08;;;19.38;;
9716;SDS011;4897;43.570;27.832;2024-03-02T00:06:31;27.45;;;19.77;;
9716;SDS011;4897;43.570;27.832;2024-03-02T00:09:04;28.90;;;20.20;;
9716;SDS011;4897;43.570;27.832;2024-03-02T00:11:34;27.48;;;19.10;;
9716;SDS011;4897;43.570;27.832;2024-03-02T00:14:01;30.20;;;20.67;;
9716;SDS011;4897;43.570;27.832;2024-03-02T00:16:30;33.45;;;20.92;;
9716;SDS011;4897;43.570;27.832;2024-03-02T00:19:01;28.27;;;19.55;;
9716;SDS011;4897;43.570;27.832;2024-03-02T00:21:29;26.45;;;20.00;;
9716;SDS011;4897;43.570;27.832;2024-03-02T00:23:57;26.60;;;21.40;;
9716;SDS011;4897;43.570;27.832;2024-03-02T00:26:26;30.65;;;21.45;;
9716;SDS011;4897;43.570;27.832;2024-03-02T00:28:54;31.85;;;21.08;;
9716;SDS011;4897;43.570;27.832;2024-03-02T00:31:22;25.42;;;20.67;;
9716;SDS011;4897;43.570;27.832;2024-03-02T00:33:50;27.85;;;20.65;;
9716;SDS011;4897;43.570;27.832;2024-03-02T00:36:21;26.02;;;20.55;;
9716;SDS011;4897;43.570;27.832;2024-03-02T00:38:53;28.30;;;21.10;;
9716;SDS011;4897;43.570;27.832;2024-03-02T00:41:22;35.40;;;20.35;;
9716;SDS011;4897;43.570;27.832;2024-03-02T00:43:57;27.85;;;20.20;;
9716;SDS011;4897;43.570;27.832;2024-03-02T00:46:26;31.65;;;22.30;;
9716;SDS011;4897;43.570;27.832;2024-03-02T00:48:55;30.58;;;21.40;;
9716;SDS011;4897;43.570;27.832;2024-03-02T00:51:23;28.52;;;20.65;;
9716;SDS011;4897;43.570;27.832;2024-03-02T00:53:51;26.48;;;20.00;;
9716;SDS011;4897;43.570;27.832;2024-03-02T00:56:21;34.55;;;21.42;;
9716;SDS011;4897;43.570;27.832;2024-03-02T00:58:48;31.00;;;21.75;;
9716;SDS011;4897;43.570;27.832;2024-03-02T01:01:17;28.02;;;21.38;;
9716;SDS011;4897;43.570;27.832;2024-03-02T01:03:45;30.52;;;22.35;;
9716;SDS011;4897;43.570;27.832;2024-03-02T01:06:11;32.92;;;22.50;;
9716;SDS011;4897;43.570;27.832;2024-03-02T01:08:38;29.55;;;23.13;;
9716;SDS011;4897;43.570;27.832;2024-03-02T01:11:05;29.98;;;22.80;;
9716;SDS011;4897;43.570;27.832;2024-03-02T01:13:32;28.20;;;20.92;;
9716;SDS011;4897;43.570;27.832;2024-03-02T01:16:00;28.13;;;17.10;;
9716;SDS011;4897;43.570;27.832;2024-03-02T01:18:29;26.55;;;16.17;;
9716;SDS011;4897;43.570;27.832;2024-03-02T01:20:56;32.47;;;18.92;;
9716;SDS011;4897;43.570;27.832;2024-03-02T01:23:23;24.13;;;15.70;;
9716;SDS011;4897;43.570;27.832;2024-03-02T01:25:50;28.83;;;16.77;;
9716;SDS011;4897;43.570;27.832;2024-03-02T01:28:17;46.70;;;38.60;;
9716;SDS011;4897;43.570;27.832;2024-03-02T01:30:47;31.65;;;25.25;;
9716;SDS011;4897;43.570;27.832;2024-03-02T01:33:14;33.58;;;27.60;;
9716;SDS011;4897;43.570;27.832;2024-03-02T01:35:43;40.17;;;27.08;;
9716;SDS011;4897;43.570;27.832;2024-03-02T01:38:10;28.98;;;22.58;;
9716;SDS011;4897;43.570;27.832;2024-03-02T01:40:38;31.20;;;23.48;;
9716;SDS011;4897;43.570;27.832;2024-03-02T01:43:09;33.08;;;22.80;;
9716;SDS011;4897;43.570;27.832;2024-03-02T01:45:36;29.92;;;22.08;;
9716;SDS011;4897;43.570;27.832;2024-03-02T01:48:04;32.80;;;22.50;;
9716;SDS011;4897;43.570;27.832;2024-03-02T01:50:32;37.05;;;22.23;;
9716;SDS011;4897;43.570;27.832;2024-03-02T01:53:00;29.33;;;22.15;;
9716;SDS011;4897;43.570;27.832;2024-03-02T01:55:28;32.92;;;22.17;;
9716;SDS011;4897;43.570;27.832;2024-03-02T01:57:55;24.63;;;19.70;;
9716;SDS011;4897;43.570;27.832;2024-03-02T02:00:23;38.15;;;21.17;;
9716;SDS011;4897;43.570;27.832;2024-03-02T02:02:51;30.83;;;21.13;;
9716;SDS011;4897;43.570;27.832;2024-03-02T02:05:19;34.80;;;21.80;;
9716;SDS011;4897;43.570;27.832;2024-03-02T02:07:46;37.33;;;22.23;;
9716;SDS011;4897;43.570;27.832;2024-03-02T02:10:14;29.13;;;22.60;;
9716;SDS011;4897;43.570;27.832;2024-03-02T02:12:42;25.58;;;22.23;;
9716;SDS011;4897;43.570;27.832;2024-03-02T02:15:21;26.88;;;22.05;;
9716;SDS011;4897;43.570;27.832;2024-03-02T02:17:52;31.83;;;21.75;;
9716;SDS011;4897;43.570;27.832;2024-03-02T02:20:19;30.10;;;22.20;;
9716;SDS011;4897;43.570;27.832;2024-03-02T02:22:57;30.92;;;21.52;;
9716;SDS011;4897;43.570;27.832;2024-03-02T02:25:24;27.25;;;21.63;;
9716;SDS011;4897;43.570;27.832;2024-03-02T02:27:51;29.05;;;23.27;;
9716;SDS011;4897;43.570;27.832;2024-03-02T02:30:19;26.70;;;20.35;;
9716;SDS011;4897;43.570;27.832;2024-03-02T02:32:47;30.67;;;23.08;;
9716;SDS011;4897;43.570;27.832;2024-03-02T02:35:14;27.75;;;23.48;;
9716;SDS011;4897;43.570;27.832;2024-03-02T02:37:41;27.95;;;21.95;;
9716;SDS011;4897;43.570;27.832;2024-03-02T02:40:11;28.40;;;21.25;;
9716;SDS011;4897;43.570;27.832;2024-03-02T02:42:38;31.67;;;22.05;;
9716;SDS011;4897;43.570;27.832;2024-03-02T02:45:06;30.17;;;21.48;;
9716;SDS011;4897;43.570;27.832;2024-03-02T02:47:34;29.50;;;21.95;;
9716;SDS011;4897;43.570;27.832;2024-03-02T02:50:01;31.25;;;23.23;;
9716;SDS011;4897;43.570;27.832;2024-03-02T02:52:32;31.15;;;22.58;;
9716;SDS011;4897;43.570;27.832;2024-03-02T02:55:01;33.45;;;22.17;;
9716;SDS011;4897;43.570;27.832;2024-03-02T02:57:31;31.25;;;23.98;;
9716;SDS011;4897;43.570;27.832;2024-03-02T03:00:01;29.30;;;23.00;;
9716;SDS011;4897;43.570;27.832;2024-03-02T03:02:38;30.77;;;22.27;;
9716;SDS011;4897;43.570;27.832;2024-03-02T03:05:07;29.73;;;22.83;;
9716;SDS011;4897;43.570;27.832;2024-03-02T03:07:35;30.88;;;22.50;;
9716;SDS011;4897;43.570;27.832;2024-03-02T03:10:03;31.13;;;22.52;;
9716;SDS011;4897;43.570;27.832;2024-03-02T03:12:33;35.70;;;23.27;;
9716;SDS011;4897;43.570;27.832;2024-03-02T03:15:00;28.98;;;22.10;;
9716;SDS011;4897;43.570;27.832;2024-03-02T03:17:32;25.55;;;22.02;;
9716;SDS011;4897;43.570;27.832;2024-03-02T03:19:58;29.58;;;22.08;;
9716;SDS011;4897;43.570;27.832;2024-03-02T03:22:26;32.47;;;21.88;;
9716;SDS011;4897;43.570;27.832;2024-03-02T03:24:53;31.75;;;22.38;;
9716;SDS011;4897;43.570;27.832;2024-03-02T03:27:19;30.45;;;23.67;;
9716;SDS011;4897;43.570;27.832;2024-03-02T03:29:48;28.83;;;22.38;;
9716;SDS011;4897;43.570;27.832;2024-03-02T03:32:15;25.27;;;21.70;;
9716;SDS011;4897;43.570;27.832;2024-03-02T03:34:42;28.55;;;23.92;;
9716;SDS011;4897;43.570;27.832;2024-03-02T03:37:09;34.70;;;22.85;;
9716;SDS011;4897;43.570;27.832;2024-03-02T03:39:36;24.98;;;21.65;;
9716;SDS011;4897;43.570;27.832;2024-03-02T03:42:03;25.85;;;22.48;;
9716;SDS011;4897;43.570;27.832;2024-03-02T03:44:30;27.25;;;21.75;;
9716;SDS011;4897;43.570;27.832;2024-03-02T03:46:58;26.73;;;22.50;;
9716;SDS011;4897;43.570;27.832;2024-03-02T03:49:26;31.42;;;23.40;;
9716;SDS011;4897;43.570;27.832;2024-03-02T03:51:53;30.38;;;23.05;;
9716;SDS011;4897;43.570;27.832;2024-03-02T03:54:19;34.08;;;23.73;;
9716;SDS011;4897;43.570;27.832;2024-03-02T03:56:46;32.40;;;24.23;;
9716;SDS011;4897;43.570;27.832;2024-03-02T03:59:13;31.33;;;23.42;;
9716;SDS011;4897;43.570;27.832;2024-03-02T04:01:40;27.88;;;22.98;;
9716;SDS011;4897;43.570;27.832;2024-03-02T04:04:08;30.83;;;23.65;;
9716;SDS011;4897;43.570;27.832;2024-03-02T04:06:35;33.08;;;23.58;;
9716;SDS011;4897;43.570;27.832;2024-03-02T04:09:02;27.80;;;24.77;;
9716;SDS011;4897;43.570;27.832;2024-03-02T04:11:30;32.85;;;25.38;;
9716;SDS011;4897;43.570;27.832;2024-03-02T04:14:00;28.00;;;24.88;;
9716;SDS011;4897;43.570;27.832;2024-03-02T04:16:27;36.17;;;25.83;;
9716;SDS011;4897;43.570;27.832;2024-03-02T04:18:54;32.95;;;24.63;;
9716;SDS011;4897;43.570;27.832;2024-03-02T04:21:25;27.40;;;22.92;;
9716;SDS011;4897;43.570;27.832;2024-03-02T04:23:55;31.63;;;25.85;;
9716;SDS011;4897;43.570;27.832;2024-03-02T04:26:24;24.63;;;21.58;;
9716;SDS011;4897;43.570;27.832;2024-03-02T04:28:51;31.50;;;20.77;;
9716;SDS011;4897;43.570;27.832;2024-03-02T04:31:21;29.08;;;19.65;;
9716;SDS011;4897;43.570;27.832;2024-03-02T04:33:47;26.23;;;17.95;;
9716;SDS011;4897;43.570;27.832;2024-03-02T04:36:15;25.67;;;18.50;;
9716;SDS011;4897;43.570;27.832;2024-03-02T04:38:43;35.92;;;32.22;;
9716;SDS011;4897;43.570;27.832;2024-03-02T04:41:10;32.20;;;27.40;;
9716;SDS011;4897;43.570;27.832;2024-03-02T04:43:37;35.85;;;27.08;;
9716;SDS011;4897;43.570;27.832;2024-03-02T04:46:04;27.80;;;24.90;;
9716;SDS011;4897;43.570;27.832;2024-03-02T04:48:32;28.35;;;21.48;;
9716;SDS011;4897;43.570;27.832;2024-03-02T04:50:59;26.20;;;20.95;;
9716;SDS011;4897;43.570;27.832;2024-03-02T04:53:26;30.95;;;23.50;;
9716;SDS011;4897;43.570;27.832;2024-03-02T04:55:54;32.05;;;23.17;;
9716;SDS011;4897;43.570;27.832;2024-03-02T04:58:35;37.97;;;24.13;;
9716;SDS011;4897;43.570;27.832;2024-03-02T05:01:02;33.10;;;24.00;;
9716;SDS011;4897;43.570;27.832;2024-03-02T05:03:29;31.02;;;21.52;;
9716;SDS011;4897;43.570;27.832;2024-03-02T05:05:56;24.20;;;19.30;;
9716;SDS011;4897;43.570;27.832;2024-03-02T05:08:22;25.70;;;19.98;;
9716;SDS011;4897;43.570;27.832;2024-03-02T05:10:49;27.25;;;21.70;;
9716;SDS011;4897;43.570;27.832;2024-03-02T05:13:18;27.38;;;21.08;;
9716;SDS011;4897;43.570;27.832;2024-03-02T05:15:46;35.00;;;21.48;;
9716;SDS011;4897;43.570;27.832;2024-03-02T05:18:13;28.38;;;21.42;;
9716;SDS011;4897;43.570;27.832;2024-03-02T05:20:40;27.13;;;22.80;;
9716;SDS011;4897;43.570;27.832;2024-03-02T05:23:09;27.60;;;19.83;;
9716;SDS011;4897;43.570;27.832;2024-03-02T05:25:39;29.67;;;20.17;;
9716;SDS011;4897;43.570;27.832;2024-03-02T05:28:06;29.50;;;21.13;;
9716;SDS011;4897;43.570;27.832;2024-03-02T05:30:34;24.08;;;19.92;;
9716;SDS011;4897;43.570;27.832;2024-03-02T05:33:02;26.73;;;20.60;;
9716;SDS011;4897;43.570;27.832;2024-03-02T05:35:29;27.35;;;21.52;;
9716;SDS011;4897;43.570;27.832;2024-03-02T05:37:56;24.50;;;21.02;;
9716;SDS011;4897;43.570;27.832;2024-03-02T05:40:24;30.15;;;20.63;;
9716;SDS011;4897;43.570;27.832;2024-03-02T05:42:52;26.98;;;21.17;;
9716;SDS011;4897;43.570;27.832;2024-03-02T05:45:19;28.80;;;20.95;;
9716;SDS011;4897;43.570;27.832;2024-03-02T05:47:47;28.88;;;20.85;;
9716;SDS011;4897;43.570;27.832;2024-03-02T05:50:14;28.23;;;20.88;;
9716;SDS011;4897;43.570;27.832;2024-03-02T05:52:41;23.98;;;20.05;;
9716;SDS011;4897;43.570;27.832;2024-03-02T05:55:08;25.73;;;19.92;;
9716;SDS011;4897;43.570;27.832;2024-03-02T05:57:35;30.05;;;22.67;;
9716;SDS011;4897;43.570;27.832;2024-03-02T06:00:14;35.03;;;23.38;;
9716;SDS011;4897;43.570;27.832;2024-03-02T06:02:42;33.05;;;22.38;;
9716;SDS011;4897;43.570;27.832;2024-03-02T06:05:11;25.20;;;21.35;;
9716;SDS011;4897;43.570;27.832;2024-03-02T06:07:37;29.52;;;22.33;;
9716;SDS011;4897;43.570;27.832;2024-03-02T06:10:05;30.33;;;23.13;;
9716;SDS011;4897;43.570;27.832;2024-03-02T06:12:34;28.63;;;22.70;;
9716;SDS011;4897;43.570;27.832;2024-03-02T06:15:01;27.20;;;21.50;;
9716;SDS011;4897;43.570;27.832;2024-03-02T06:17:29;27.83;;;22.77;;
9716;SDS011;4897;43.570;27.832;2024-03-02T06:19:56;27.92;;;22.70;;
9716;SDS011;4897;43.570;27.832;2024-03-02T06:22:25;33.15;;;23.17;;
9716;SDS011;4897;43.570;27.832;2024-03-02T06:24:52;26.20;;;23.30;;
9716;SDS011;4897;43.570;27.832;2024-03-02T06:27:19;29.02;;;23.92;;
9716;SDS011;4897;43.570;27.832;2024-03-02T06:29:46;35.63;;;25.63;;
9716;SDS011;4897;43.570;27.832;2024-03-02T06:32:16;28.30;;;24.05;;
9716;SDS011;4897;43.570;27.832;2024-03-02T06:34:43;36.88;;;25.27;;
9716;SDS011;4897;43.570;27.832;2024-03-02T06:37:13;34.65;;;24.15;;
9716;SDS011;4897;43.570;27.832;2024-03-02T06:39:43;30.23;;;25.30;;
9716;SDS011;4897;43.570;27.832;2024-03-02T06:42:10;27.20;;;23.10;;
9716;SDS011;4897;43.570;27.832;2024-03-02T06:44:37;29.40;;;24.35;;
9716;SDS011;4897;43.570;27.832;2024-03-02T06:47:04;26.48;;;23.15;;
9716;SDS011;4897;43.570;27.832;2024-03-02T06:49:31;30.50;;;23.50;;
9716;SDS011;4897;43.570;27.832;2024-03-02T06:51:59;30.58;;;25.05;;
9716;SDS011;4897;43.570;27.832;2024-03-02T06:54:26;24.75;;;21.70;;
9716;SDS011;4897;43.570;27.832;2024-03-02T06:56:55;25.63;;;22.02;;
9716;SDS011;4897;43.570;27.832;2024-03-02T06:59:21;31.52;;;23.48;;
9716;SDS011;4897;43.570;27.832;2024-03-02T07:01:49;26.02;;;21.67;;
9716;SDS011;4897;43.570;27.832;2024-03-02T07:04:16;25.20;;;21.15;;
9716;SDS011;4897;43.570;27.832;2024-03-02T07:06:42;24.75;;;20.88;;
9716;SDS011;4897;43.570;27.832;2024-03-02T07:09:09;24.95;;;20.48;;
9716;SDS011;4897;43.570;27.832;2024-03-02T07:11:39;21.63;;;19.55;;
9716;SDS011;4897;43.570;27.832;2024-03-02T07:14:07;23.65;;;19.50;;
9716;SDS011;4897;43.570;27.832;2024-03-02T07:16:34;23.10;;;20.52;;
9716;SDS011;4897;43.570;27.832;2024-03-02T07:19:05;27.52;;;21.58;;
9716;SDS011;4897;43.570;27.832;2024-03-02T07:21:32;24.25;;;20.13;;
9716;SDS011;4897;43.570;27.832;2024-03-02T07:24:02;23.42;;;18.98;;
9716;SDS011;4897;43.570;27.832;2024-03-02T07:26:29;22.25;;;19.85;;
9716;SDS011;4897;43.570;27.832;2024-03-02T07:28:57;23.38;;;20.45;;
9716;SDS011;4897;43.570;27.832;2024-03-02T07:31:26;31.30;;;21.02;;
9716;SDS011;4897;43.570;27.832;2024-03-02T07:33:52;24.83;;;19.08;;
9716;SDS011;4897;43.570;27.832;2024-03-02T07:36:19;24.85;;;21.55;;
9716;SDS011;4897;43.570;27.832;2024-03-02T07:38:45;24.33;;;19.55;;
9716;SDS011;4897;43.570;27.832;2024-03-02T07:41:15;23.33;;;18.77;;
9716;SDS011;4897;43.570;27.832;2024-03-02T07:43:42;23.35;;;19.58;;
9716;SDS011;4897;43.570;27.832;2024-03-02T07:46:10;30.05;;;20.27;;
9716;SDS011;4897;43.570;27.832;2024-03-02T07:48:38;24.35;;;20.33;;
9716;SDS011;4897;43.570;27.832;2024-03-02T07:51:05;26.95;;;20.38;;
9716;SDS011;4897;43.570;27.832;2024-03-02T07:53:32;21.20;;;19.00;;
9716;SDS011;4897;43.570;27.832;2024-03-02T07:55:59;25.60;;;20.23;;
9716;SDS011;4897;43.570;27.832;2024-03-02T07:58:29;27.35;;;21.00;;
9716;SDS011;4897;43.570;27.832;2024-03-02T08:00:58;23.50;;;20.00;;
9716;SDS011;4897;43.570;27.832;2024-03-02T08:03:26;22.88;;;19.77;;
9716;SDS011;4897;43.570;27.832;2024-03-02T08:05:55;22.38;;;19.08;;
9716;SDS011;4897;43.570;27.832;2024-03-02T08:08:22;30.92;;;21.05;;
9716;SDS011;4897;43.570;27.832;2024-03-02T08:10:49;30.88;;;19.13;;
9716;SDS011;4897;43.570;27.832;2024-03-02T08:13:16;28.27;;;19.80;;
9716;SDS011;4897;43.570;27.832;2024-03-02T08:15:43;32.08;;;23.40;;
9716;SDS011;4897;43.570;27.832;2024-03-02T08:18:10;25.52;;;21.02;;
9716;SDS011;4897;43.570;27.832;2024-03-02T08:20:37;20.50;;;17.23;;
9716;SDS011;4897;43.570;27.832;2024-03-02T08:23:05;29.65;;;21.33;;
9716;SDS011;4897;43.570;27.832;2024-03-02T08:25:33;26.30;;;17.75;;
9716;SDS011;4897;43.570;27.832;2024-03-02T08:28:00;28.27;;;18.02;;
9716;SDS011;4897;43.570;27.832;2024-03-02T08:30:27;39.42;;;24.23;;
9716;SDS011;4897;43.570;27.832;2024-03-02T08:32:54;27.70;;;19.08;;
9716;SDS011;4897;43.570;27.832;2024-03-02T08:35:23;20.92;;;18.20;;
9716;SDS011;4897;43.570;27.832;2024-03-02T08:37:50;23.15;;;17.73;;
9716;SDS011;4897;43.570;27.832;2024-03-02T08:40:20;28.05;;;18.48;;
9716;SDS011;4897;43.570;27.832;2024-03-02T08:42:47;23.23;;;18.13;;
9716;SDS011;4897;43.570;27.832;2024-03-02T08:45:14;20.23;;;16.88;;
9716;SDS011;4897;43.570;27.832;2024-03-02T08:47:42;30.20;;;18.08;;
9716;SDS011;4897;43.570;27.832;2024-03-02T08:50:11;19.77;;;17.40;;
9716;SDS011;4897;43.570;27.832;2024-03-02T08:52:38;24.73;;;17.85;;
9716;SDS011;4897;43.570;27.832;2024-03-02T08:55:05;27.05;;;17.65;;
9716;SDS011;4897;43.570;27.832;2024-03-02T08:57:44;27.83;;;17.52;;
9716;SDS011;4897;43.570;27.832;2024-03-02T09:00:11;24.40;;;17.35;;
9716;SDS011;4897;43.570;27.832;2024-03-02T09:02:39;28.30;;;19.92;;
9716;SDS011;4897;43.570;27.832;2024-03-02T09:05:06;24.65;;;17.83;;
9716;SDS011;4897;43.570;27.832;2024-03-02T09:07:34;22.77;;;17.88;;
9716;SDS011;4897;43.570;27.832;2024-03-02T09:10:04;21.15;;;17.60;;
9716;SDS011;4897;43.570;27.832;2024-03-02T09:12:32;23.25;;;17.80;;
9716;SDS011;4897;43.570;27.832;2024-03-02T09:15:01;21.73;;;17.55;;
9716;SDS011;4897;43.570;27.832;2024-03-02T09:17:28;20.58;;;17.17;;
9716;SDS011;4897;43.570;27.832;2024-03-02T09:19:56;23.08;;;17.08;;
9716;SDS011;4897;43.570;27.832;2024-03-02T09:22:26;22.08;;;17.65;;
9716;SDS011;4897;43.570;27.832;2024-03-02T09:24:53;23.08;;;18.45;;
9716;SDS011;4897;43.570;27.832;2024-03-02T09:27:20;25.08;;;17.92;;
9716;SDS011;4897;43.570;27.832;2024-03-02T09:29:47;24.40;;;17.83;;
9716;SDS011;4897;43.570;27.832;2024-03-02T09:32:16;21.02;;;17.85;;
9716;SDS011;4897;43.570;27.832;2024-03-02T09:34:43;21.15;;;18.15;;
9716;SDS011;4897;43.570;27.832;2024-03-02T09:37:09;23.40;;;17.17;;
9716;SDS011;4897;43.570;27.832;2024-03-02T09:39:36;19.90;;;16.95;;
9716;SDS011;4897;43.570;27.832;2024-03-02T09:42:04;25.33;;;16.98;;
9716;SDS011;4897;43.570;27.832;2024-03-02T09:44:32;24.25;;;17.75;;
9716;SDS011;4897;43.570;27.832;2024-03-02T09:47:00;22.23;;;17.40;;
9716;SDS011;4897;43.570;27.832;2024-03-02T09:49:28;21.35;;;17.88;;
9716;SDS011;4897;43.570;27.832;2024-03-02T09:51:55;20.40;;;17.40;;
9716;SDS011;4897;43.570;27.832;2024-03-02T09:54:23;23.02;;;18.15;;
9716;SDS011;4897;43.570;27.832;2024-03-02T09:56:50;24.40;;;18.52;;
9716;SDS011;4897;43.570;27.832;2024-03-02T09:59:17;24.85;;;18.83;;
9716;SDS011;4897;43.570;27.832;2024-03-02T10:04:33;22.48;;;18.10;;
9716;SDS011;4897;43.570;27.832;2024-03-02T10:07:11;20.73;;;18.33;;
9716;SDS011;4897;43.570;27.832;2024-03-02T10:09:39;21.27;;;17.50;;
9716;SDS011;4897;43.570;27.832;2024-03-02T10:12:07;22.05;;;18.42;;
9716;SDS011;4897;43.570;27.832;2024-03-02T10:14:36;35.33;;;18.17;;
9716;SDS011;4897;43.570;27.832;2024-03-02T10:17:04;19.75;;;16.67;;
9716;SDS011;4897;43.570;27.832;2024-03-02T10:19:31;21.60;;;17.85;;
9716;SDS011;4897;43.570;27.832;2024-03-02T10:22:02;23.45;;;17.63;;
9716;SDS011;4897;43.570;27.832;2024-03-02T10:24:37;30.17;;;16.75;;
9716;SDS011;4897;43.570;27.832;2024-03-02T10:27:06;20.63;;;18.10;;
9716;SDS011;4897;43.570;27.832;2024-03-02T10:29:38;27.30;;;18.90;;
9716;SDS011;4897;43.570;27.832;2024-03-02T10:32:08;25.25;;;17.95;;
9716;SDS011;4897;43.570;27.832;2024-03-02T10:34:39;25.38;;;17.92;;
9716;SDS011;4897;43.570;27.832;2024-03-02T10:37:06;29.80;;;18.25;;
9716;SDS011;4897;43.570;27.832;2024-03-02T10:39:34;20.20;;;17.52;;
9716;SDS011;4897;43.570;27.832;2024-03-02T10:42:02;22.35;;;17.23;;
9716;SDS011;4897;43.570;27.832;2024-03-02T10:44:33;24.50;;;18.27;;
9716;SDS011;4897;43.570;27.832;2024-03-02T10:47:00;19.60;;;17.48;;
9716;SDS011;4897;43.570;27.832;2024-03-02T10:49:27;19.00;;;16.15;;
9716;SDS011;4897;43.570;27.832;2024-03-02T10:51:57;21.02;;;17.65;;
9716;SDS011;4897;43.570;27.832;2024-03-02T10:54:25;19.27;;;17.17;;
9716;SDS011;4897;43.570;27.832;2024-03-02T10:56:55;23.27;;;18.80;;
9716;SDS011;4897;43.570;27.832;2024-03-02T10:59:26;20.80;;;18.60;;
9716;SDS011;4897;43.570;27.832;2024-03-02T11:01:56;21.40;;;19.17;;
9716;SDS011;4897;43.570;27.832;2024-03-02T11:04:24;20.90;;;17.58;;
9716;SDS011;4897;43.570;27.832;2024-03-02T11:06:54;20.33;;;17.85;;
9716;SDS011;4897;43.570;27.832;2024-03-02T11:09:26;21.13;;;17.30;;
9716;SDS011;4897;43.570;27.832;2024-03-02T11:12:03;20.50;;;17.45;;
9716;SDS011;4897;43.570;27.832;2024-03-02T11:14:32;23.25;;;17.67;;
9716;SDS011;4897;43.570;27.832;2024-03-02T11:17:04;21.60;;;18.75;;
9716;SDS011;4897;43.570;27.832;2024-03-02T11:19:31;22.25;;;18.02;;
9716;SDS011;4897;43.570;27.832;2024-03-02T11:22:00;19.63;;;17.52;;
9716;SDS011;4897;43.570;27.832;2024-03-02T11:24:30;25.13;;;18.55;;
9716;SDS011;4897;43.570;27.832;2024-03-02T11:26:59;19.45;;;17.23;;
9716;SDS011;4897;43.570;27.832;2024-03-02T11:29:45;22.50;;;18.77;;
9716;SDS011;4897;43.570;27.832;2024-03-02T11:32:16;21.77;;;19.23;;
9716;SDS011;4897;43.570;27.832;2024-03-02T11:34:45;20.50;;;17.90;;
9716;SDS011;4897;43.570;27.832;2024-03-02T11:37:16;23.35;;;18.90;;
9716;SDS011;4897;43.570;27.832;2024-03-02T11:39:44;29.60;;;19.67;;
9716;SDS011;4897;43.570;27.832;2024-03-02T11:42:12;20.63;;;18.10;;
9716;SDS011;4897;43.570;27.832;2024-03-02T11:44:41;22.17;;;17.92;;
9716;SDS011;4897;43.570;27.832;2024-03-02T11:47:11;22.98;;;18.55;;
9716;SDS011;4897;43.570;27.832;2024-03-02T11:49:43;21.38;;;17.75;;
9716;SDS011;4897;43.570;27.832;2024-03-02T11:52:12;25.17;;;18.85;;
9716;SDS011;4897;43.570;27.832;2024-03-02T11:54:44;23.00;;;18.52;;
9716;SDS011;4897;43.570;27.832;2024-03-02T11:57:16;21.75;;;17.83;;
9716;SDS011;4897;43.570;27.832;2024-03-02T11:59:44;23.23;;;17.70;;
9716;SDS011;4897;43.570;27.832;2024-03-02T12:02:15;22.92;;;17.63;;
9716;SDS011;4897;43.570;27.832;2024-03-02T12:04:43;22.10;;;18.05;;
9716;SDS011;4897;43.570;27.832;2024-03-02T12:07:13;23.13;;;18.92;;
9716;SDS011;4897;43.570;27.832;2024-03-02T12:09:48;24.70;;;18.50;;
9716;SDS011;4897;43.570;27.832;2024-03-02T12:12:16;25.08;;;18.42;;
9716;SDS011;4897;43.570;27.832;2024-03-02T12:14:50;19.17;;;16.92;;
9716;SDS011;4897;43.570;27.832;2024-03-02T12:17:20;21.17;;;18.80;;
9716;SDS011;4897;43.570;27.832;2024-03-02T12:19:47;19.77;;;17.70;;
9716;SDS011;4897;43.570;27.832;2024-03-02T12:22:15;19.75;;;17.77;;
9716;SDS011;4897;43.570;27.832;2024-03-02T12:24:42;20.10;;;18.05;;
9716;SDS011;4897;43.570;27.832;2024-03-02T12:27:13;21.25;;;19.02;;
9716;SDS011;4897;43.570;27.832;2024-03-02T12:29:43;22.70;;;18.25;;
9716;SDS011;4897;43.570;27.832;2024-03-02T12:32:10;25.17;;;18.90;;
9716;SDS011;4897;43.570;27.832;2024-03-02T12:34:38;25.13;;;19.25;;
9716;SDS011;4897;43.570;27.832;2024-03-02T12:37:05;22.25;;;18.67;;
9716;SDS011;4897;43.570;27.832;2024-03-02T12:39:35;21.73;;;17.33;;
9716;SDS011;4897;43.570;27.832;2024-03-02T12:42:02;21.83;;;19.33;;
9716;SDS011;4897;43.570;27.832;2024-03-02T12:44:31;20.85;;;18.40;;
9716;SDS011;4897;43.570;27.832;2024-03-02T12:46:58;19.73;;;17.48;;
9716;SDS011;4897;43.570;27.832;2024-03-02T12:49:25;22.85;;;19.27;;
9716;SDS011;4897;43.570;27.832;2024-03-02T12:51:53;20.90;;;18.60;;
9716;SDS011;4897;43.570;27.832;2024-03-02T12:54:22;19.92;;;17.60;;
9716;SDS011;4897;43.570;27.832;2024-03-02T12:56:50;20.58;;;18.30;;
9716;SDS011;4897;43.570;27.832;2024-03-02T12:59:19;35.00;;;21.13;;
9716;SDS011;4897;43.570;27.832;2024-03-02T13:01:52;28.70;;;20.33;;
9716;SDS011;4897;43.570;27.832;2024-03-02T13:04:22;22.20;;;18.90;;
9716;SDS011;4897;43.570;27.832;2024-03-02T13:06:51;27.30;;;20.10;;
9716;SDS011;4897;43.570;27.832;2024-03-02T13:09:18;29.30;;;21.67;;
9716;SDS011;4897;43.570;27.832;2024-03-02T13:11:45;22.63;;;20.08;;
9716;SDS011;4897;43.570;27.832;2024-03-02T13:14:13;26.25;;;19.83;;
9716;SDS011;4897;43.570;27.832;2024-03-02T13:16:40;34.35;;;24.58;;
9716;SDS011;4897;43.570;27.832;2024-03-02T13:19:09;22.52;;;20.10;;
9716;SDS011;4897;43.570;27.832;2024-03-02T13:21:37;22.33;;;19.45;;
9716;SDS011;4897;43.570;27.832;2024-03-02T13:24:04;23.48;;;18.52;;
9716;SDS011;4897;43.570;27.832;2024-03-02T13:26:35;27.20;;;20.75;;
9716;SDS011;4897;43.570;27.832;2024-03-02T13:29:02;22.63;;;18.30;;
9716;SDS011;4897;43.570;27.832;2024-03-02T13:31:29;22.60;;;18.60;;
9716;SDS011;4897;43.570;27.832;2024-03-02T13:33:56;22.77;;;18.52;;
9716;SDS011;4897;43.570;27.832;2024-03-02T13:36:24;20.27;;;18.13;;
9716;SDS011;4897;43.570;27.832;2024-03-02T13:38:54;25.83;;;19.80;;
9716;SDS011;4897;43.570;27.832;2024-03-02T13:41:23;23.67;;;19.63;;
9716;SDS011;4897;43.570;27.832;2024-03-02T13:43:50;23.88;;;17.98;;
9716;SDS011;4897;43.570;27.832;2024-03-02T13:46:17;22.88;;;18.25;;
9716;SDS011;4897;43.570;27.832;2024-03-02T13:48:44;20.85;;;16.60;;
9716;SDS011;4897;43.570;27.832;2024-03-02T13:51:10;23.85;;;18.40;;
9716;SDS011;4897;43.570;27.832;2024-03-02T13:53:39;23.50;;;18.45;;
9716;SDS011;4897;43.570;27.832;2024-03-02T13:56:06;24.70;;;22.30;;
9716;SDS011;4897;43.570;27.832;2024-03-02T13:58:33;24.65;;;21.52;;
9716;SDS011;4897;43.570;27.832;2024-03-02T14:01:01;24.23;;;19.52;;
9716;SDS011;4897;43.570;27.832;2024-03-02T14:03:29;24.45;;;19.10;;
9716;SDS011;4897;43.570;27.832;2024-03-02T14:05:57;23.58;;;19.35;;
9716;SDS011;4897;43.570;27.832;2024-03-02T14:08:24;22.80;;;19.45;;
9716;SDS011;4897;43.570;27.832;2024-03-02T14:10:53;28.33;;;20.25;;
9716;SDS011;4897;43.570;27.832;2024-03-02T14:13:20;25.45;;;20.42;;
9716;SDS011;4897;43.570;27.832;2024-03-02T14:15:48;22.00;;;19.58;;
9716;SDS011;4897;43.570;27.832;2024-03-02T14:18:14;21.00;;;18.73;;
9716;SDS011;4897;43.570;27.832;2024-03-02T14:20:42;25.95;;;18.25;;
9716;SDS011;4897;43.570;27.832;2024-03-02T14:23:09;21.15;;;18.92;;
9716;SDS011;4897;43.570;27.832;2024-03-02T14:25:39;20.73;;;18.52;;
9716;SDS011;4897;43.570;27.832;2024-03-02T14:28:09;22.23;;;18.60;;
9716;SDS011;4897;43.570;27.832;2024-03-02T14:30:37;21.38;;;19.20;;
9716;SDS011;4897;43.570;27.832;2024-03-02T14:33:04;29.27;;;25.20;;
9716;SDS011;4897;43.570;27.832;2024-03-02T14:35:31;25.75;;;19.63;;
9716;SDS011;4897;43.570;27.832;2024-03-02T14:37:58;26.83;;;21.33;;
9716;SDS011;4897;43.570;27.832;2024-03-02T14:40:25;26.73;;;21.33;;
9716;SDS011;4897;43.570;27.832;2024-03-02T14:42:54;31.48;;;21.23;;